Řízení letového provozu České republiky  
Aktualizace dat:  10.05.2021 05:35:25 UTC English version
   METEO Zobrazení stránky:  10.05.2021 05:36:36 UTC  
vysvětlivky
METAR EDDB 100520Z 13009KT CAVOK 16/07 Q1006 NOSIG=
METAR EDDC 100520Z 16015KT CAVOK 16/05 Q1007 TEMPO 16015G25KT=
METAR EDDE 100520Z 18007KT CAVOK 18/08 Q1005 NOSIG=
METAR EDDF 100520Z VRB02KT 9999 -SHRA SCT050TCU 15/12 Q1005 NOSIG=
METAR EDDM 100520Z VRB01KT CAVOK 12/09 Q1009 NOSIG=
METAR EDDN 100520Z 11006KT CAVOK 15/08 Q1007 NOSIG=
METAR EDDP 100520Z 17010KT CAVOK 16/09 Q1006 NOSIG=
METAR EDQM 100520Z 15007KT CAVOK 13/07 Q1008=
METAR EPBY 100530Z 15010KT CAVOK 14/05 Q1012=
METAR EPGD 100530Z 16009KT CAVOK 14/06 Q1012=
METAR EPKK 100530Z 05005KT CAVOK 14/05 Q1015=
METAR EPKT 100530Z 13010KT CAVOK 14/03 Q1015=
METAR EPLL 100530Z 13005KT 090V190 CAVOK 14/05 Q1014=
METAR EPPO 100530Z 12009KT CAVOK 15/05 Q1010=
METAR EPRZ 100530Z 10008KT CAVOK 13/05 Q1018=
METAR EPWA 100530Z 14010KT CAVOK 13/05 Q1016 NOSIG=
METAR EPWR 100530Z 14013KT CAVOK 14/05 Q1011=
METAR LHBP 100530Z 12009KT CAVOK 13/05 Q1019 NOSIG=
METAR LHSM 100515Z AUTO 15005KT 110V170 9000 NCD 12/06 Q1017 NOSIG=
METAR LKBC 100530Z AUTO 09007KT CAVOK 11/05 Q1010=
METAR LKCV 100530Z 14016KT CAVOK 15/03 Q1010 NOSIG RMK BLU BLU=
METAR LKKB 100530Z 09006KT CAVOK 13/05 Q1010 NOSIG RMK BLU BLU=
METAR LKKU NIL
METAR LKKV 100500Z 05002KT CAVOK 10/05 Q1009 RMK REG QNH 1007=
METAR LKLN 100530Z AUTO VRB02KT CAVOK 13/09 Q1010=
METAR LKMT 100530Z 20014KT CAVOK 18/01 Q1014 NOSIG RMK REG QNH 1007=
METAR LKNA 100530Z 12011KT CAVOK 12/00 Q1012 NOSIG RMK BLU BLU=
METAR LKPD 100530Z 11007KT CAVOK 15/03 Q1011 NOSIG RMK BLU BLU=
METAR LKPJ 100530Z AUTO 16004KT 120V180 CAVOK 15/06 Q1014=
METAR LKPR 100530Z 11007KT CAVOK 13/06 Q1010 NOSIG RMK REG QNH 1007=
METAR LKTB 100530Z 12012KT CAVOK 15/02 Q1013 NOSIG RMK REG QNH 1007=
METAR LKVO NIL
METAR LOWI 100520Z 24006KT 190V280 9999 FEW060 14/07 Q1014 WS R26 NOSIG=
METAR LOWL 100520Z VRB01KT CAVOK 12/09 Q1010 NOSIG=
METAR LOWS 100520Z 15008KT CAVOK 18/05 Q1010 NOSIG=
METAR LOWW 100520Z 14017KT CAVOK 13/04 Q1012 NOSIG=
METAR LZIB 100530Z 09009KT CAVOK 14/06 Q1015 NOSIG=
METAR LZKZ 100530Z VRB01KT CAVOK 13/05 Q1021 NOSIG=
METAR LZMC 100500Z 16020G30KT CAVOK 13/03 Q1014=
METAR LZPP 100530Z 12017G30KT CAVOK 16/03 Q1015=
SPECI LZSL 100530Z 02006KT CAVOK 10/04 Q1020=
METAR LZTT 100530Z 20006KT 140V250 CAVOK 14/01 Q1019 NOSIG=
METAR LZZI 100530Z VRB02KT CAVOK 12/07 Q1016=